Tougaloo, Mississippi
Current Conditions -  °F | °C
As of 9:36 AM on Monday 22 Dec 2014 (Local Time) from KHKS Reporting Station
Haze Haze  
Wind Chill: 55°   Ceiling: 300
Heat Index: 55°   Visibility: 1.2mi
Dew Point: 54°   Wind: 6mph
Humidity: 96%   Direction: 150°SSE
Pressure: 29.83"   Gusts: NA
Location:  32.4°N, 90.16°W
Report Text: KHKS 221536Z 15005KT 1 1/4SM BR OVC003 13/12 A2983 RMK AO2 T01280122
Loading
Personal Weather Stations






























Interactive Weather Map New forecast layout! Learn more

10-Day Weather Forecast

Advertisements
Track Severe Weather on mobile